sensor_id;sensor_type;location;lat;lon;timestamp;pressure;altitude;pressure_sealevel;temperature;humidity
829;BME280;396;52.558;13.188;2023-05-23T00:01:44;100679.19;;;18.80;61.95
829;BME280;396;52.558;13.188;2023-05-23T00:04:11;100673.19;;;18.74;62.14
829;BME280;396;52.558;13.188;2023-05-23T00:06:41;100671.81;;;18.68;62.70
829;BME280;396;52.558;13.188;2023-05-23T00:09:09;100675.19;;;18.61;63.02
829;BME280;396;52.558;13.188;2023-05-23T00:11:35;100672.34;;;18.58;63.78
829;BME280;396;52.558;13.188;2023-05-23T00:14:02;100669.06;;;18.52;64.22
829;BME280;396;52.558;13.188;2023-05-23T00:16:28;100672.41;;;18.46;64.38
829;BME280;396;52.558;13.188;2023-05-23T00:18:56;100668.34;;;18.39;64.34
829;BME280;396;52.558;13.188;2023-05-23T00:21:23;100664.28;;;18.33;64.70
829;BME280;396;52.558;13.188;2023-05-23T00:23:51;100660.97;;;18.28;65.04
829;BME280;396;52.558;13.188;2023-05-23T00:26:18;100660.44;;;18.22;65.64
829;BME280;396;52.558;13.188;2023-05-23T00:28:45;100659.09;;;18.16;65.25
829;BME280;396;52.558;13.188;2023-05-23T00:31:12;100661.28;;;18.10;64.90
829;BME280;396;52.558;13.188;2023-05-23T00:33:39;100658.00;;;18.05;65.06
829;BME280;396;52.558;13.188;2023-05-23T00:36:07;100652.78;;;18.00;65.21
829;BME280;396;52.558;13.188;2023-05-23T00:38:33;100660.09;;;17.96;65.95
829;BME280;396;52.558;13.188;2023-05-23T00:41:00;100653.72;;;17.92;65.64
829;BME280;396;52.558;13.188;2023-05-23T00:43:27;100650.78;;;17.84;63.06
829;BME280;396;52.558;13.188;2023-05-23T00:45:54;100642.78;;;17.79;60.87
829;BME280;396;52.558;13.188;2023-05-23T00:48:20;100643.16;;;17.65;61.72
829;BME280;396;52.558;13.188;2023-05-23T00:50:47;100648.09;;;17.60;63.57
829;BME280;396;52.558;13.188;2023-05-23T00:53:15;100650.38;;;17.58;64.91
829;BME280;396;52.558;13.188;2023-05-23T00:55:43;100648.81;;;17.45;65.42
829;BME280;396;52.558;13.188;2023-05-23T00:58:09;100645.38;;;17.48;65.50
829;BME280;396;52.558;13.188;2023-05-23T01:00:37;100637.41;;;17.43;65.23
829;BME280;396;52.558;13.188;2023-05-23T01:03:04;100656.03;;;17.37;66.40
829;BME280;396;52.558;13.188;2023-05-23T01:05:31;100641.88;;;17.35;66.17
829;BME280;396;52.558;13.188;2023-05-23T01:07:57;100650.44;;;17.33;66.74
829;BME280;396;52.558;13.188;2023-05-23T01:10:30;100644.84;;;17.30;67.09
829;BME280;396;52.558;13.188;2023-05-23T01:13:05;100646.34;;;17.27;66.93
829;BME280;396;52.558;13.188;2023-05-23T01:15:44;100635.97;;;17.21;68.45
829;BME280;396;52.558;13.188;2023-05-23T01:18:17;100639.97;;;17.23;68.87
829;BME280;396;52.558;13.188;2023-05-23T01:20:48;100632.66;;;17.27;68.42
829;BME280;396;52.558;13.188;2023-05-23T01:26:32;100634.50;;;17.23;68.78
829;BME280;396;52.558;13.188;2023-05-23T01:29:10;100638.13;;;17.27;69.16
829;BME280;396;52.558;13.188;2023-05-23T01:31:42;100634.69;;;17.30;69.50
829;BME280;396;52.558;13.188;2023-05-23T01:34:11;100619.66;;;17.24;70.30
829;BME280;396;52.558;13.188;2023-05-23T01:36:39;100625.91;;;17.25;69.95
829;BME280;396;52.558;13.188;2023-05-23T01:39:07;100625.00;;;17.21;69.71
829;BME280;396;52.558;13.188;2023-05-23T01:41:34;100618.84;;;17.24;70.15
829;BME280;396;52.558;13.188;2023-05-23T01:44:02;100623.53;;;17.23;69.86
829;BME280;396;52.558;13.188;2023-05-23T01:46:30;100619.53;;;17.21;69.84
829;BME280;396;52.558;13.188;2023-05-23T01:49:00;100613.88;;;17.13;70.42
829;BME280;396;52.558;13.188;2023-05-23T01:51:27;100620.94;;;17.14;71.36
829;BME280;396;52.558;13.188;2023-05-23T01:53:55;100619.53;;;17.21;70.66
829;BME280;396;52.558;13.188;2023-05-23T01:56:22;100624.22;;;17.20;71.10
829;BME280;396;52.558;13.188;2023-05-23T01:58:51;100617.16;;;17.19;70.75
829;BME280;396;52.558;13.188;2023-05-23T02:01:17;100626.41;;;17.14;70.05
829;BME280;396;52.558;13.188;2023-05-23T02:03:45;100617.84;;;17.16;70.80
829;BME280;396;52.558;13.188;2023-05-23T02:06:12;100625.25;;;17.15;70.98
829;BME280;396;52.558;13.188;2023-05-23T02:08:38;100631.53;;;17.16;69.93
829;BME280;396;52.558;13.188;2023-05-23T02:11:05;100630.38;;;17.17;70.19
829;BME280;396;52.558;13.188;2023-05-23T02:13:33;100627.19;;;17.15;68.92
829;BME280;396;52.558;13.188;2023-05-23T02:15:59;100620.13;;;17.14;68.23
829;BME280;396;52.558;13.188;2023-05-23T02:18:26;100626.72;;;17.13;68.66
829;BME280;396;52.558;13.188;2023-05-23T02:20:55;100620.94;;;17.14;70.23
829;BME280;396;52.558;13.188;2023-05-23T02:23:21;100627.56;;;17.13;69.80
829;BME280;396;52.558;13.188;2023-05-23T02:25:48;100628.34;;;17.14;70.64
829;BME280;396;52.558;13.188;2023-05-23T02:28:15;100628.22;;;17.10;70.16
829;BME280;396;52.558;13.188;2023-05-23T02:30:41;100627.31;;;17.06;69.80
829;BME280;396;52.558;13.188;2023-05-23T02:33:08;100632.91;;;17.10;69.99
829;BME280;396;52.558;13.188;2023-05-23T02:35:35;100629.03;;;17.11;70.31
829;BME280;396;52.558;13.188;2023-05-23T02:38:02;100631.88;;;17.14;69.66
829;BME280;396;52.558;13.188;2023-05-23T02:40:29;100622.94;;;17.18;69.72
829;BME280;396;52.558;13.188;2023-05-23T02:42:56;100619.41;;;17.17;71.50
829;BME280;396;52.558;13.188;2023-05-23T02:45:23;100617.84;;;17.16;72.42
829;BME280;396;52.558;13.188;2023-05-23T02:47:49;100607.56;;;17.13;72.62
829;BME280;396;52.558;13.188;2023-05-23T02:50:16;100594.13;;;17.08;71.81
829;BME280;396;52.558;13.188;2023-05-23T02:52:43;100583.88;;;17.05;71.20
829;BME280;396;52.558;13.188;2023-05-23T02:55:11;100592.66;;;17.10;70.18
829;BME280;396;52.558;13.188;2023-05-23T02:57:37;100602.81;;;17.10;69.55
829;BME280;396;52.558;13.188;2023-05-23T03:00:05;100606.69;;;16.97;68.51
829;BME280;396;52.558;13.188;2023-05-23T03:02:34;100602.56;;;16.90;69.49
829;BME280;396;52.558;13.188;2023-05-23T03:05:00;100599.63;;;16.83;71.10
829;BME280;396;52.558;13.188;2023-05-23T03:07:27;100602.94;;;16.89;70.45
829;BME280;396;52.558;13.188;2023-05-23T03:09:54;100607.72;;;16.92;70.37
829;BME280;396;52.558;13.188;2023-05-23T03:12:22;100601.91;;;16.94;70.43
829;BME280;396;52.558;13.188;2023-05-23T03:14:48;100586.81;;;17.00;71.13
829;BME280;396;52.558;13.188;2023-05-23T03:17:15;100591.84;;;17.10;72.67
829;BME280;396;52.558;13.188;2023-05-23T03:19:42;100587.06;;;17.07;71.98
829;BME280;396;52.558;13.188;2023-05-23T03:22:08;100594.81;;;17.05;71.60
829;BME280;396;52.558;13.188;2023-05-23T03:24:35;100599.84;;;17.03;70.22
829;BME280;396;52.558;13.188;2023-05-23T03:27:02;100601.53;;;16.95;70.71
829;BME280;396;52.558;13.188;2023-05-23T03:29:30;100592.91;;;16.93;73.20
829;BME280;396;52.558;13.188;2023-05-23T03:31:57;100590.03;;;17.02;73.08
829;BME280;396;52.558;13.188;2023-05-23T03:34:23;100591.63;;;17.03;73.45
829;BME280;396;52.558;13.188;2023-05-23T03:36:50;100591.75;;;17.06;73.00
829;BME280;396;52.558;13.188;2023-05-23T03:39:17;100594.00;;;17.04;71.32
829;BME280;396;52.558;13.188;2023-05-23T03:41:43;100592.31;;;17.00;72.03
829;BME280;396;52.558;13.188;2023-05-23T03:44:10;100583.41;;;16.90;73.93
829;BME280;396;52.558;13.188;2023-05-23T03:46:38;100585.84;;;16.92;73.71
829;BME280;396;52.558;13.188;2023-05-23T03:49:05;100591.06;;;16.97;73.35
829;BME280;396;52.558;13.188;2023-05-23T03:51:32;100589.56;;;17.00;73.81
829;BME280;396;52.558;13.188;2023-05-23T03:53:59;100601.78;;;17.02;72.37
829;BME280;396;52.558;13.188;2023-05-23T03:56:26;100594.38;;;16.90;73.67
829;BME280;396;52.558;13.188;2023-05-23T03:58:52;100599.84;;;16.90;75.38
829;BME280;396;52.558;13.188;2023-05-23T04:01:19;100599.75;;;16.87;77.28
829;BME280;396;52.558;13.188;2023-05-23T04:03:48;100604.41;;;16.86;77.36
829;BME280;396;52.558;13.188;2023-05-23T04:06:15;100606.69;;;16.84;77.75
829;BME280;396;52.558;13.188;2023-05-23T04:08:42;100598.03;;;16.82;78.94
829;BME280;396;52.558;13.188;2023-05-23T04:11:09;100592.66;;;16.86;78.64
829;BME280;396;52.558;13.188;2023-05-23T04:13:36;100589.47;;;16.84;79.10
829;BME280;396;52.558;13.188;2023-05-23T04:16:02;100592.66;;;16.86;79.38
829;BME280;396;52.558;13.188;2023-05-23T04:18:29;100590.03;;;16.89;79.51
829;BME280;396;52.558;13.188;2023-05-23T04:20:59;100587.97;;;16.86;79.73
829;BME280;396;52.558;13.188;2023-05-23T04:23:25;100585.72;;;16.88;79.77
829;BME280;396;52.558;13.188;2023-05-23T04:25:52;100577.75;;;16.96;79.34
829;BME280;396;52.558;13.188;2023-05-23T04:28:19;100580.91;;;16.98;78.90
829;BME280;396;52.558;13.188;2023-05-23T04:30:46;100578.84;;;16.95;78.62
829;BME280;396;52.558;13.188;2023-05-23T04:33:13;100591.41;;;16.96;78.00
829;BME280;396;52.558;13.188;2023-05-23T04:35:41;100588.88;;;16.90;78.63
829;BME280;396;52.558;13.188;2023-05-23T04:38:09;100584.09;;;17.00;77.98
829;BME280;396;52.558;13.188;2023-05-23T04:40:37;100582.97;;;17.01;78.01
829;BME280;396;52.558;13.188;2023-05-23T04:43:04;100580.69;;;17.03;78.51
829;BME280;396;52.558;13.188;2023-05-23T04:45:30;100582.97;;;17.01;78.24
829;BME280;396;52.558;13.188;2023-05-23T04:47:58;100582.72;;;17.06;77.39
829;BME280;396;52.558;13.188;2023-05-23T04:50:24;100579.31;;;17.09;77.86
829;BME280;396;52.558;13.188;2023-05-23T04:52:55;100584.19;;;17.15;78.79
829;BME280;396;52.558;13.188;2023-05-23T04:55:23;100587.16;;;17.10;78.80
829;BME280;396;52.558;13.188;2023-05-23T04:57:50;100591.06;;;17.09;78.70
829;BME280;396;52.558;13.188;2023-05-23T05:00:17;100596.63;;;17.13;77.45
829;BME280;396;52.558;13.188;2023-05-23T05:02:44;100601.16;;;17.21;74.93
829;BME280;396;52.558;13.188;2023-05-23T05:05:11;100597.31;;;17.22;75.85
829;BME280;396;52.558;13.188;2023-05-23T05:07:37;100594.56;;;17.22;78.32
829;BME280;396;52.558;13.188;2023-05-23T05:10:05;100595.81;;;17.25;78.96
829;BME280;396;52.558;13.188;2023-05-23T05:12:33;100598.09;;;17.23;78.07
829;BME280;396;52.558;13.188;2023-05-23T05:15:01;100597.53;;;17.17;76.54
829;BME280;396;52.558;13.188;2023-05-23T05:17:28;100602.44;;;17.11;74.82
829;BME280;396;52.558;13.188;2023-05-23T05:19:54;100606.56;;;17.05;74.03
829;BME280;396;52.558;13.188;2023-05-23T05:22:21;100619.34;;;17.01;74.06
829;BME280;396;52.558;13.188;2023-05-23T05:24:48;100609.53;;;17.00;74.37
829;BME280;396;52.558;13.188;2023-05-23T05:27:14;100611.13;;;16.89;74.61
829;BME280;396;52.558;13.188;2023-05-23T05:29:42;100609.44;;;16.84;75.15
829;BME280;396;52.558;13.188;2023-05-23T05:32:09;100610.09;;;16.81;75.64
829;BME280;396;52.558;13.188;2023-05-23T05:34:35;100607.28;;;16.78;76.97
829;BME280;396;52.558;13.188;2023-05-23T05:37:02;100604.06;;;16.76;76.84
829;BME280;396;52.558;13.188;2023-05-23T05:39:29;100609.66;;;16.79;77.16
829;BME280;396;52.558;13.188;2023-05-23T05:41:56;100610.47;;;16.80;78.43
829;BME280;396;52.558;13.188;2023-05-23T05:44:22;100605.78;;;16.80;76.53
829;BME280;396;52.558;13.188;2023-05-23T05:46:50;100603.97;;;16.84;75.83
829;BME280;396;52.558;13.188;2023-05-23T05:49:17;100600.53;;;16.87;76.17
829;BME280;396;52.558;13.188;2023-05-23T05:51:43;100592.91;;;16.93;77.06
829;BME280;396;52.558;13.188;2023-05-23T05:54:10;100591.75;;;16.94;76.22
829;BME280;396;52.558;13.188;2023-05-23T05:56:36;100586.81;;;17.00;75.59
829;BME280;396;52.558;13.188;2023-05-23T05:59:03;100591.97;;;17.01;75.84
829;BME280;396;52.558;13.188;2023-05-23T06:01:29;100588.22;;;17.06;76.14
829;BME280;396;52.558;13.188;2023-05-23T06:03:57;100585.34;;;17.14;75.92
829;BME280;396;52.558;13.188;2023-05-23T06:06:24;100588.19;;;17.18;76.11
829;BME280;396;52.558;13.188;2023-05-23T06:08:50;100589.09;;;17.22;75.67
829;BME280;396;52.558;13.188;2023-05-23T06:11:17;100585.53;;;17.22;75.32
829;BME280;396;52.558;13.188;2023-05-23T06:13:44;100580.06;;;17.22;76.06
829;BME280;396;52.558;13.188;2023-05-23T06:16:10;100580.16;;;17.25;74.21
829;BME280;396;52.558;13.188;2023-05-23T06:18:37;100581.72;;;17.38;73.42
829;BME280;396;52.558;13.188;2023-05-23T06:21:05;100586.97;;;17.44;72.62
829;BME280;396;52.558;13.188;2023-05-23T06:23:32;100592.22;;;17.49;72.87
829;BME280;396;52.558;13.188;2023-05-23T06:25:58;100600.19;;;17.54;72.80
829;BME280;396;52.558;13.188;2023-05-23T06:28:25;100605.84;;;17.61;73.04
829;BME280;396;52.558;13.188;2023-05-23T06:30:51;100607.75;;;17.73;71.79
829;BME280;396;52.558;13.188;2023-05-23T06:33:18;100617.44;;;17.82;71.49
829;BME280;396;52.558;13.188;2023-05-23T06:35:45;100608.72;;;17.93;71.36
829;BME280;396;52.558;13.188;2023-05-23T06:38:13;100605.28;;;17.96;70.06
829;BME280;396;52.558;13.188;2023-05-23T06:40:40;100603.91;;;18.02;69.66
829;BME280;396;52.558;13.188;2023-05-23T06:43:06;100603.34;;;17.96;71.92
829;BME280;396;52.558;13.188;2023-05-23T06:45:33;100604.63;;;17.86;71.54
829;BME280;396;52.558;13.188;2023-05-23T06:48:02;100599.91;;;17.71;73.42
829;BME280;396;52.558;13.188;2023-05-23T06:50:29;100594.63;;;17.66;72.72
829;BME280;396;52.558;13.188;2023-05-23T06:52:55;100596.94;;;17.64;74.39
829;BME280;396;52.558;13.188;2023-05-23T06:55:23;100597.38;;;17.66;74.56
829;BME280;396;52.558;13.188;2023-05-23T06:57:51;100603.44;;;17.72;73.33
829;BME280;396;52.558;13.188;2023-05-23T07:00:18;100607.19;;;17.79;72.80
829;BME280;396;52.558;13.188;2023-05-23T07:02:45;100606.78;;;17.93;70.56
829;BME280;396;52.558;13.188;2023-05-23T07:05:12;100603.00;;;17.98;69.46
829;BME280;396;52.558;13.188;2023-05-23T07:07:39;100608.47;;;17.98;69.44
829;BME280;396;52.558;13.188;2023-05-23T07:10:07;100606.94;;;17.84;70.62
829;BME280;396;52.558;13.188;2023-05-23T07:12:35;100605.53;;;17.90;70.56
829;BME280;396;52.558;13.188;2023-05-23T07:15:01;100602.81;;;17.90;71.99
829;BME280;396;52.558;13.188;2023-05-23T07:17:28;100594.84;;;17.85;70.99
829;BME280;396;52.558;13.188;2023-05-23T07:19:55;100591.84;;;17.90;71.30
829;BME280;396;52.558;13.188;2023-05-23T07:22:21;100589.19;;;17.94;70.05
829;BME280;396;52.558;13.188;2023-05-23T07:24:48;100596.81;;;18.01;70.27
829;BME280;396;52.558;13.188;2023-05-23T07:27:14;100593.19;;;18.12;70.89
829;BME280;396;52.558;13.188;2023-05-23T07:29:42;100594.44;;;18.31;68.60
829;BME280;396;52.558;13.188;2023-05-23T07:32:09;100604.56;;;18.43;69.50
829;BME280;396;52.558;13.188;2023-05-23T07:34:35;100602.84;;;18.54;68.73
829;BME280;396;52.558;13.188;2023-05-23T07:37:02;100599.50;;;18.60;67.82
829;BME280;396;52.558;13.188;2023-05-23T07:39:29;100599.97;;;18.78;65.90
829;BME280;396;52.558;13.188;2023-05-23T07:41:55;100606.22;;;18.95;65.88
829;BME280;396;52.558;13.188;2023-05-23T07:44:22;100607.34;;;19.09;65.15
829;BME280;396;52.558;13.188;2023-05-23T07:46:50;100607.03;;;19.30;62.75
829;BME280;396;52.558;13.188;2023-05-23T07:49:16;100612.63;;;19.18;62.27
829;BME280;396;52.558;13.188;2023-05-23T07:51:43;100612.19;;;19.16;63.31
829;BME280;396;52.558;13.188;2023-05-23T07:54:09;100609.78;;;19.30;64.69
829;BME280;396;52.558;13.188;2023-05-23T07:56:36;100606.06;;;19.23;65.37
829;BME280;396;52.558;13.188;2023-05-23T07:59:03;100609.88;;;19.53;64.83
829;BME280;396;52.558;13.188;2023-05-23T08:01:30;100608.31;;;19.72;63.13
829;BME280;396;52.558;13.188;2023-05-23T08:03:58;100608.88;;;19.61;64.20
829;BME280;396;52.558;13.188;2023-05-23T08:06:25;100605.06;;;19.66;65.04
829;BME280;396;52.558;13.188;2023-05-23T08:08:51;100607.13;;;19.73;64.75
829;BME280;396;52.558;13.188;2023-05-23T08:11:18;100613.56;;;19.80;64.27
829;BME280;396;52.558;13.188;2023-05-23T08:13:44;100608.31;;;19.72;65.63
829;BME280;396;52.558;13.188;2023-05-23T08:16:11;100613.44;;;19.73;65.92
829;BME280;396;52.558;13.188;2023-05-23T08:18:38;100615.44;;;19.96;65.83
829;BME280;396;52.558;13.188;2023-05-23T08:21:06;100617.94;;;20.04;65.30
829;BME280;396;52.558;13.188;2023-05-23T08:23:33;100622.88;;;20.14;65.88
829;BME280;396;52.558;13.188;2023-05-23T08:25:59;100621.22;;;20.33;65.89
829;BME280;396;52.558;13.188;2023-05-23T08:28:26;100633.59;;;20.42;65.36
829;BME280;396;52.558;13.188;2023-05-23T08:30:53;100631.78;;;20.50;65.61
829;BME280;396;52.558;13.188;2023-05-23T08:33:21;100629.22;;;20.61;67.02
829;BME280;396;52.558;13.188;2023-05-23T08:35:48;100633.59;;;20.65;66.91
829;BME280;396;52.558;13.188;2023-05-23T08:38:16;100632.50;;;20.70;67.44
829;BME280;396;52.558;13.188;2023-05-23T08:40:49;100629.38;;;20.72;68.00
829;BME280;396;52.558;13.188;2023-05-23T08:43:16;100635.47;;;20.84;67.99
829;BME280;396;52.558;13.188;2023-05-23T08:45:43;100636.28;;;21.11;68.00
829;BME280;396;52.558;13.188;2023-05-23T08:48:12;100643.41;;;21.16;69.08
829;BME280;396;52.558;13.188;2023-05-23T08:50:41;100646.84;;;21.32;66.83
829;BME280;396;52.558;13.188;2023-05-23T08:53:08;100650.22;;;21.22;66.48
829;BME280;396;52.558;13.188;2023-05-23T08:55:36;100645.88;;;21.21;67.19
829;BME280;396;52.558;13.188;2023-05-23T08:58:03;100654.56;;;21.23;67.30
829;BME280;396;52.558;13.188;2023-05-23T09:00:30;100660.34;;;21.14;67.45
829;BME280;396;52.558;13.188;2023-05-23T09:02:59;100659.41;;;21.07;68.16
829;BME280;396;52.558;13.188;2023-05-23T09:05:26;100656.13;;;21.21;66.57
829;BME280;396;52.558;13.188;2023-05-23T09:07:52;100649.75;;;21.16;68.23
829;BME280;396;52.558;13.188;2023-05-23T09:10:19;100654.88;;;21.18;68.37
829;BME280;396;52.558;13.188;2023-05-23T09:12:48;100656.13;;;21.21;69.24
829;BME280;396;52.558;13.188;2023-05-23T09:15:14;100658.72;;;21.36;67.98
829;BME280;396;52.558;13.188;2023-05-23T09:17:41;100661.06;;;21.34;68.11
829;BME280;396;52.558;13.188;2023-05-23T09:20:11;100663.28;;;21.29;68.82
829;BME280;396;52.558;13.188;2023-05-23T09:22:38;100667.78;;;21.37;67.66
829;BME280;396;52.558;13.188;2023-05-23T09:25:06;100676.09;;;21.40;67.82
829;BME280;396;52.558;13.188;2023-05-23T09:27:33;100669.00;;;21.39;68.14
829;BME280;396;52.558;13.188;2023-05-23T09:30:06;100670.97;;;21.16;71.39
829;BME280;396;52.558;13.188;2023-05-23T09:32:32;100666.44;;;21.27;68.95
829;BME280;396;52.558;13.188;2023-05-23T09:35:00;100670.34;;;21.26;71.59
829;BME280;396;52.558;13.188;2023-05-23T09:37:28;100660.47;;;21.48;71.50
829;BME280;396;52.558;13.188;2023-05-23T09:39:57;100669.13;;;21.50;71.37
829;BME280;396;52.558;13.188;2023-05-23T09:42:24;100662.66;;;21.65;70.27
829;BME280;396;52.558;13.188;2023-05-23T09:44:52;100671.84;;;21.77;69.49
829;BME280;396;52.558;13.188;2023-05-23T09:47:20;100663.56;;;21.47;70.11
829;BME280;396;52.558;13.188;2023-05-23T09:49:47;100667.66;;;21.56;69.61
829;BME280;396;52.558;13.188;2023-05-23T09:52:15;100671.72;;;21.66;69.99
829;BME280;396;52.558;13.188;2023-05-23T09:54:44;100671.53;;;21.52;70.87
829;BME280;396;52.558;13.188;2023-05-23T09:57:13;100660.59;;;21.59;70.02
829;BME280;396;52.558;13.188;2023-05-23T09:59:41;100669.28;;;21.61;69.88
829;BME280;396;52.558;13.188;2023-05-23T10:02:10;100676.50;;;21.73;71.50
829;BME280;396;52.558;13.188;2023-05-23T10:04:39;100668.91;;;21.92;69.88
829;BME280;396;52.558;13.188;2023-05-23T10:07:12;100664.91;;;21.90;69.01
829;BME280;396;52.558;13.188;2023-05-23T10:09:41;100667.84;;;21.71;69.84
829;BME280;396;52.558;13.188;2023-05-23T10:12:41;100671.63;;;21.59;71.10
829;BME280;396;52.558;13.188;2023-05-23T10:15:10;100677.63;;;21.38;72.84
829;BME280;396;52.558;13.188;2023-05-23T10:17:45;100683.22;;;21.19;74.94
829;BME280;396;52.558;13.188;2023-05-23T10:20:21;100679.81;;;21.02;77.94
829;BME280;396;52.558;13.188;2023-05-23T10:22:50;100688.22;;;20.86;79.50
829;BME280;396;52.558;13.188;2023-05-23T10:25:17;100683.88;;;20.62;81.87
829;BME280;396;52.558;13.188;2023-05-23T10:27:46;100698.41;;;20.59;82.42
829;BME280;396;52.558;13.188;2023-05-23T10:30:14;100692.88;;;20.59;82.49
829;BME280;396;52.558;13.188;2023-05-23T10:32:41;100686.94;;;20.57;83.75
829;BME280;396;52.558;13.188;2023-05-23T10:35:14;100688.59;;;20.62;82.48
829;BME280;396;52.558;13.188;2023-05-23T10:37:48;100688.66;;;20.88;80.84
829;BME280;396;52.558;13.188;2023-05-23T10:40:20;100698.84;;;21.11;80.38
829;BME280;396;52.558;13.188;2023-05-23T10:42:55;100699.09;;;21.52;78.29
829;BME280;396;52.558;13.188;2023-05-23T10:45:26;100699.97;;;21.89;75.75
829;BME280;396;52.558;13.188;2023-05-23T10:47:53;100705.41;;;21.82;75.12
829;BME280;396;52.558;13.188;2023-05-23T10:50:30;100706.00;;;21.69;75.15
829;BME280;396;52.558;13.188;2023-05-23T10:53:00;100704.38;;;21.37;77.01
829;BME280;396;52.558;13.188;2023-05-23T10:55:31;100702.97;;;20.98;78.27
829;BME280;396;52.558;13.188;2023-05-23T10:58:08;100699.00;;;20.72;79.50
829;BME280;396;52.558;13.188;2023-05-23T11:00:35;100703.88;;;20.40;81.40
829;BME280;396;52.558;13.188;2023-05-23T11:03:04;100710.06;;;20.14;82.96
829;BME280;396;52.558;13.188;2023-05-23T11:05:33;100706.69;;;20.01;83.48
829;BME280;396;52.558;13.188;2023-05-23T11:08:08;100710.16;;;19.98;84.52
829;BME280;396;52.558;13.188;2023-05-23T11:10:54;100709.06;;;20.03;83.96
829;BME280;396;52.558;13.188;2023-05-23T11:13:22;100713.97;;;20.13;83.46
829;BME280;396;52.558;13.188;2023-05-23T11:15:48;100712.91;;;20.37;83.35
829;BME280;396;52.558;13.188;2023-05-23T11:18:20;100712.00;;;20.52;82.01
829;BME280;396;52.558;13.188;2023-05-23T11:20:48;100718.94;;;20.65;81.40
829;BME280;396;52.558;13.188;2023-05-23T11:23:17;100714.84;;;20.56;80.77
829;BME280;396;52.558;13.188;2023-05-23T11:25:47;100706.09;;;20.50;81.35
829;BME280;396;52.558;13.188;2023-05-23T11:28:14;100720.19;;;20.49;81.00
829;BME280;396;52.558;13.188;2023-05-23T11:30:41;100719.91;;;20.34;82.35
829;BME280;396;52.558;13.188;2023-05-23T11:33:09;100728.63;;;20.36;81.38
829;BME280;396;52.558;13.188;2023-05-23T11:35:39;100718.31;;;20.33;81.24
829;BME280;396;52.558;13.188;2023-05-23T11:38:05;100722.34;;;20.39;81.10
829;BME280;396;52.558;13.188;2023-05-23T11:40:34;100720.84;;;20.42;81.63
829;BME280;396;52.558;13.188;2023-05-23T11:43:03;100714.56;;;20.41;81.53
829;BME280;396;52.558;13.188;2023-05-23T11:45:30;100732.66;;;20.42;81.96
829;BME280;396;52.558;13.188;2023-05-23T11:47:57;100727.56;;;20.45;81.30
829;BME280;396;52.558;13.188;2023-05-23T11:50:24;100731.44;;;20.21;82.05
829;BME280;396;52.558;13.188;2023-05-23T11:52:50;100731.44;;;20.21;82.18
829;BME280;396;52.558;13.188;2023-05-23T11:55:18;100733.59;;;20.11;83.17
829;BME280;396;52.558;13.188;2023-05-23T11:57:47;100733.75;;;19.99;82.50
829;BME280;396;52.558;13.188;2023-05-23T12:00:15;100737.50;;;19.91;83.79
829;BME280;396;52.558;13.188;2023-05-23T12:02:43;100738.56;;;19.86;83.72
829;BME280;396;52.558;13.188;2023-05-23T12:05:13;100731.63;;;19.73;84.62
829;BME280;396;52.558;13.188;2023-05-23T12:07:40;100750.84;;;19.73;85.22
829;BME280;396;52.558;13.188;2023-05-23T12:10:08;100745.63;;;19.84;84.32
829;BME280;396;52.558;13.188;2023-05-23T12:12:34;100739.31;;;19.83;83.94
829;BME280;396;52.558;13.188;2023-05-23T12:15:03;100744.06;;;19.86;84.67
829;BME280;396;52.558;13.188;2023-05-23T12:17:30;100742.06;;;19.83;84.22
829;BME280;396;52.558;13.188;2023-05-23T12:19:57;100751.31;;;19.95;83.21
829;BME280;396;52.558;13.188;2023-05-23T12:22:24;100750.38;;;19.87;83.48
829;BME280;396;52.558;13.188;2023-05-23T12:24:52;100755.66;;;19.76;84.31
829;BME280;396;52.558;13.188;2023-05-23T12:27:25;100754.69;;;19.69;84.67
829;BME280;396;52.558;13.188;2023-05-23T12:30:05;100750.44;;;19.71;84.92
829;BME280;396;52.558;13.188;2023-05-23T12:32:33;100752.09;;;19.60;85.27
829;BME280;396;52.558;13.188;2023-05-23T12:35:00;100760.66;;;19.39;85.84
829;BME280;396;52.558;13.188;2023-05-23T12:37:27;100751.44;;;19.31;85.78
829;BME280;396;52.558;13.188;2023-05-23T12:39:55;100758.34;;;19.25;86.17
829;BME280;396;52.558;13.188;2023-05-23T12:42:22;100768.03;;;19.35;86.59
829;BME280;396;52.558;13.188;2023-05-23T12:44:50;100757.47;;;19.37;86.21
829;BME280;396;52.558;13.188;2023-05-23T12:47:18;100765.00;;;19.24;86.85
829;BME280;396;52.558;13.188;2023-05-23T12:49:45;100757.31;;;19.14;87.28
829;BME280;396;52.558;13.188;2023-05-23T12:52:12;100760.50;;;19.00;88.14
829;BME280;396;52.558;13.188;2023-05-23T12:54:38;100759.50;;;18.93;88.76
829;BME280;396;52.558;13.188;2023-05-23T12:57:05;100756.84;;;18.80;89.34
829;BME280;396;52.558;13.188;2023-05-23T12:59:32;100761.16;;;18.81;90.22
829;BME280;396;52.558;13.188;2023-05-23T13:01:58;100761.72;;;18.87;89.75
829;BME280;396;52.558;13.188;2023-05-23T13:04:27;100762.78;;;18.82;89.55
829;BME280;396;52.558;13.188;2023-05-23T13:06:53;100758.75;;;18.64;91.06
829;BME280;396;52.558;13.188;2023-05-23T13:09:20;100768.47;;;18.61;91.38
829;BME280;396;52.558;13.188;2023-05-23T13:11:47;100772.06;;;18.50;91.65
829;BME280;396;52.558;13.188;2023-05-23T13:14:13;100772.66;;;18.43;91.91
829;BME280;396;52.558;13.188;2023-05-23T13:16:40;100769.56;;;18.45;91.78
829;BME280;396;52.558;13.188;2023-05-23T13:19:07;100766.72;;;18.41;91.05
829;BME280;396;52.558;13.188;2023-05-23T13:21:35;100767.09;;;18.39;91.31
829;BME280;396;52.558;13.188;2023-05-23T13:24:01;100764.09;;;18.45;91.52
829;BME280;396;52.558;13.188;2023-05-23T13:26:28;100768.41;;;18.46;91.43
829;BME280;396;52.558;13.188;2023-05-23T13:28:55;100767.28;;;18.47;91.23